Airfield :
LOGIN :

Register | Disclaimer

   EN    FR    IT 

 










Legend :    VFR   Marginal VFR   IFR   Intensive IFR   Very Intensive IFR
Visi :
Ceiling :
>= 8 km
>= 3000ft
5 to 8 km
1000 to 3000 ft
1500m to 5 km
500 to 1000 ft
800 to 1500m
200 to 500 ft
< 800m
< 200 ft
Symbols :   Thunderstorms  Fog  Heavy snow  Heavy precipitations  Wind > 20 kt
SIGMETs :     Misc.  Thunderstorms  Icing  Turbulence  Mountain Waves  Volcanic Ashes






- Airport Elevation : 72 ft
- IATA code : UDE


EHVK - Volkel Airbase

CURRENT METAR :
  • 241215Z AUTO 19010KT 160V230 2200 R24R/P3000N -RADZ SCT002 OVC003 07/07 Q1010 AMB 16010KT 6000 BKN008 BKN010 TEMPO 3000 DZRA SCT003 BKN005 BKN010

EXPIRED METARs :
  • 241159Z AUTO 18010KT 150V220 3200 R24R/P3000U -DZ SCT002 OVC004 07/06 Q1011 AMB 16010KT 6000 BKN008 BKN010 TEMPO 3000 DZRA SCT003 BKN005 BKN010
  • 241147Z AUTO 18010KT 140V210 3600 R24R/P3000U -DZ SCT003 BKN004 OVC005 06/06 Q1011 YLO 16010KT 6000 BKN008 BKN010 TEMPO 3000 DZRA SCT003 BKN005 BKN010
  • 241125Z AUTO 17011KT 7000 -DZ FEW004 SCT005 BKN007 06/06 Q1012 REDZ YLO 16010KT 6000 BKN008 BKN010 TEMPO 3000 DZRA SCT003 BKN005 BKN010
  • 241055Z AUTO 16010KT 3200 R24R/P3000U DZ SCT003 BKN004 OVC005 05/05 Q1013 YLO 16010KT 9999 BKN010 OVC035 TEMPO 4000 DZRA SCT005 BKN010
  • 241025Z AUTO 16011KT 120V200 3900 R24R/2800D -RA FEW004 BKN006 BKN007 05/05 Q1014 RERA REDZ YLO 16010KT 9999 BKN010 OVC035 TEMPO 4000 DZRA SCT005 BKN010
  • 241014Z AUTO 16013KT 120V200 3600 R24R/P3000D DZ SCT004 BKN006 OVC007 05/05 Q1014 YLO 16010KT 9999 BKN010 OVC035 TEMPO 4000 DZRA SCT005 BKN010
  • 240955Z AUTO 16012KT 130V190 4200 -DZ SCT005 BKN006 OVC008 05/04 Q1015 REDZ YLO 16010KT 9999 BKN010 OVC035 TEMPO 4000 DZRA SCT005 BKN010
  • 240938Z AUTO 16010KT 6000 DZ FEW006 SCT007 BKN022 05/04 Q1016 GRN 16008KT 9999 BKN010 OVC035 TEMPO SCT005 BKN010 4500 DZRA
  • 240931Z AUTO 16010KT 140V200 6000 DZ FEW007 OVC025 05/04 Q1016 WHT 16008KT 9999 BKN028 OVC035
  • 240925Z AUTO 16009KT 9999 -RA FEW024 BKN027 OVC031 05/04 Q1016 RERA REDZ BLU 16008KT 9999 BKN028 OVC035

TAF TAF EHVK
Valid from the 24 at 10:00 until the 24 at 22:00 UTC


240938Z 2410/2422 18010KT 9999 SCT010 BKN014
TEMPO 2410/2415 3000 -DZ SCT003 BKN005
BECMG 2412/2414 24020G35KT
BECMG 2413/2415 SCT015 BKN020
TEMPO 2415/2420 4000 RA SCT007 BKN010
BECMG 2417/2420 24015G28KT



MET'MAP, your aeronautical weather chart ! - Copyright ORBIFLY December 2007 - Disclaimer

ORBIFLY MET'MAP TEAM :

Programming & Development : Alexandra Zaïnal
Concept & original design : Baudouin d'Aumeries
Assistance for programming : Marc-Olivier Méhu
Technical & hardware support : Manuel Goepfert

Contact : metmap@orbifly.com




SOURCES & CREDITS :

   NOAA